Hartsfield Jackson Atlanta International Airport
KATL : rendu visible

Aérodrome :











RETROUVEZ-NOUS SUR...

 
LOGIN :

S'inscrire | Disclaimer

   EN    FR    IT 

 









Légende :    VFR   VFR Marginal   IFR   IFR Intensif   IFR Très Intensif
Visi : 
Plafond : 
>= 8 km
>= 3000ft
5 à 8 km
1000 à 3000 ft
1500m à 5 km
500 à 1000 ft
800 à 1500m
200 à 500 ft
< 800m
< 200 ft
Symboles :   Orages  Brouillard  Fortes neiges  Fortes précipitations  Vent > 20 kt







- Altitude de l'aérodrome : 1026 ft
- Code IATA : ATL


KATL - Hartsfield Jackson Atlanta International

DERNIER METAR :
  • 241852Z 20013G19KT 10SM FEW170 FEW250 BKN300 27/08 A2999 RMK AO2 SLP145 T02720083

METARs EXPIRÉS :
  • 241752Z 25008G16KT 10SM FEW170 FEW200 SCT250 27/11 A3001 RMK AO2 SLP154 T02720111 10272 20178 58015
  • 241652Z 26011G16KT 230V290 10SM FEW170 SCT200 SCT250 26/12 A3004 RMK AO2 SLP163 T02610117

TAF KATL
Valide du 24 à 18h jusqu'au 26 à 00h UTC


241723Z 2418/2524 23011G16KT P6SM SCT250
FM250300 23003KT P6SM FEW250
FM250900 23003KT P6SM BKN250
FM251400 22006KT P6SM BKN250
FM251800 21011G18KT P6SM BKN150
FM252300 19010KT P6SM BKN090
PROB30 2523/2524 4SM -SHRA OVC025
FIR KZTL / Amérique du Nord



MET'MAP, la Météo Aéronautique d'un coup d'oeil ! - Copyright ORBIFLY Décembre 2007 - Disclaimer

ORBIFLY MET'MAP TEAM :

Programmation & Développement : Alexandra Zaïnal
Conception & Développement : Baudouin d'Aumeries
Co-Programmation & Développement : Marc-Olivier Méhu
Soutien technique & logistique : Manuel Goepfert

Contact : metmap@orbifly.com




SOURCES & CREDITS :

   NOAA       Earth
Advisory